Time;durP1;ratioP1;P1;durP2;ratioP2;P2;SDS_P1;SDS_P2;PMS_P1;PMS_P2;Temp;Humidity;BMP_temperature;BMP_pressure;BME280_temperature;BME280_humidity;BME280_pressure;Samples;Min_cycle;Max_cycle;Signal;HPM_P1;HPM_P2
2022/10/29 00:00:25;;;;;;;9.17;5.10;;;15.80;99.90;;;;;;5035133;28;20193;-88
2022/10/29 00:02:51;;;;;;;16.50;5.23;;;15.80;99.90;;;;;;5033358;28;20186;-89
2022/10/29 00:05:17;;;;;;;13.43;6.97;;;15.80;99.90;;;;;;5033106;28;20618;-89
2022/10/29 00:07:42;;;;;;;9.00;5.10;;;15.80;99.90;;;;;;5034644;28;20220;-88
2022/10/29 00:10:08;;;;;;;16.73;5.20;;;15.80;99.90;;;;;;5017594;28;20280;-89
2022/10/29 00:12:34;;;;;;;9.87;5.67;;;15.80;99.90;;;;;;5032645;28;20194;-89
2022/10/29 00:14:59;;;;;;;8.50;5.30;;;15.80;99.90;;;;;;5033547;28;20504;-86
2022/10/29 00:17:25;;;;;;;7.60;5.30;;;15.70;99.90;;;;;;5034076;28;20236;-83
2022/10/29 00:19:50;;;;;;;14.10;5.40;;;15.70;99.90;;;;;;5032512;28;20264;-89
2022/10/29 00:22:16;;;;;;;8.73;4.53;;;15.70;99.90;;;;;;5034801;28;20191;-89
2022/10/29 00:24:42;;;;;;;13.73;6.20;;;15.70;99.90;;;;;;5017049;28;20186;-90
2022/10/29 00:27:07;;;;;;;26.40;7.10;;;15.80;99.90;;;;;;5000013;28;20656;-88
2022/10/29 00:29:33;;;;;;;18.43;7.20;;;15.80;99.90;;;;;;5033453;28;20558;-89
2022/10/29 00:31:58;;;;;;;8.37;5.10;;;15.80;99.90;;;;;;5033947;28;20182;-89
2022/10/29 00:34:24;;;;;;;12.63;6.30;;;15.80;99.90;;;;;;5017113;28;20175;-89
2022/10/29 00:36:49;;;;;;;12.97;5.57;;;15.90;99.90;;;;;;5015879;28;20182;-88
2022/10/29 00:39:15;;;;;;;13.53;5.80;;;15.70;99.90;;;;;;5017004;28;20205;-88
2022/10/29 00:41:41;;;;;;;14.80;5.60;;;15.80;99.90;;;;;;5033470;28;20540;-91
2022/10/29 00:44:22;;;;;;;15.33;5.03;;;15.70;99.90;;;;;;5034147;28;20182;-90
2022/10/29 00:47:13;;;;;;;11.50;4.80;;;15.70;99.90;;;;;;5033237;28;20550;-91
2022/10/29 00:49:40;;;;;;;12.27;4.87;;;15.80;99.90;;;;;;5004338;28;21217;-89
2022/10/29 00:52:06;;;;;;;12.70;5.30;;;15.70;99.90;;;;;;5031509;28;20939;-89
2022/10/29 00:54:35;;;;;;;19.50;6.20;;;15.70;99.90;;;;;;5032136;28;20842;-85
2022/10/29 00:57:11;;;;;;;9.13;5.60;;;15.70;99.90;;;;;;5032534;28;20433;-91
2022/10/29 00:59:37;;;;;;;11.87;5.47;;;15.60;99.90;;;;;;5034214;28;20448;-91
2022/10/29 01:02:02;;;;;;;9.23;5.00;;;15.60;99.90;;;;;;5034052;28;20431;-88
2022/10/29 01:04:29;;;;;;;13.83;4.80;;;15.60;99.90;;;;;;5034043;28;20232;-89
2022/10/29 01:06:55;;;;;;;12.13;5.17;;;15.50;99.90;;;;;;5034091;28;20533;-89
2022/10/29 01:09:20;;;;;;;10.67;4.90;;;15.50;99.90;;;;;;5032821;28;20396;-89
2022/10/29 01:11:55;;;;;;;11.87;4.87;;;15.40;99.90;;;;;;5015623;28;20210;-89
2022/10/29 01:14:34;;;;;;;17.07;5.33;;;15.40;99.90;;;;;;5032721;28;20513;-86
2022/10/29 01:17:11;;;;;;;13.40;5.60;;;15.40;99.90;;;;;;5033458;28;20448;-89
2022/10/29 01:19:49;;;;;;;12.63;4.50;;;15.30;99.90;;;;;;5033610;28;20431;-89
2022/10/29 01:22:45;;;;;;;13.40;5.23;;;15.30;99.90;;;;;;5048071;28;20432;-88
2022/10/29 01:25:24;;;;;;;13.13;5.10;;;15.30;99.90;;;;;;5042530;28;20432;-89
2022/10/29 01:28:02;;;;;;;9.10;5.03;;;15.30;99.90;;;;;;5032619;28;20729;-90
2022/10/29 01:30:46;;;;;;;12.60;4.93;;;15.30;99.90;;;;;;5034017;28;20397;-90
2022/10/29 01:33:34;;;;;;;11.23;4.37;;;15.30;99.90;;;;;;5033482;28;20405;-89
2022/10/29 01:36:16;;;;;;;9.67;5.40;;;15.30;99.90;;;;;;5031447;28;20543;-91
2022/10/29 01:38:50;;;;;;;12.47;5.93;;;15.30;99.90;;;;;;5033604;28;20508;-90
2022/10/29 01:41:48;;;;;;;18.33;5.00;;;15.30;99.90;;;;;;5034310;28;20479;-90
2022/10/29 01:44:22;;;;;;;8.40;4.50;;;15.30;99.90;;;;;;5033416;28;20388;-90
2022/10/29 01:46:54;;;;;;;16.53;5.30;;;15.30;99.90;;;;;;5033146;28;20372;-91
2022/10/29 01:49:26;;;;;;;7.80;5.10;;;15.30;99.90;;;;;;5031274;28;20404;-90
2022/10/29 01:51:53;;;;;;;16.07;5.37;;;15.30;99.90;;;;;;5031533;28;20400;-90
2022/10/29 01:54:18;;;;;;;15.50;5.97;;;15.20;99.90;;;;;;5030350;28;20468;-90
2022/10/29 01:56:53;;;;;;;11.33;5.17;;;15.20;99.90;;;;;;5031204;28;20420;-91
2022/10/29 01:59:18;;;;;;;9.80;5.37;;;15.20;99.90;;;;;;5033242;28;20638;-88
2022/10/29 02:02:18;;;;;;;10.13;5.00;;;15.20;99.90;;;;;;5031393;28;20506;-90
2022/10/29 02:05:11;;;;;;;17.50;4.87;;;15.20;99.90;;;;;;5030876;28;20193;-90
2022/10/29 02:07:50;;;;;;;10.20;5.30;;;15.20;99.90;;;;;;5033135;28;20393;-85
2022/10/29 02:10:29;;;;;;;16.17;5.20;;;15.30;99.90;;;;;;5033137;28;20397;-90
2022/10/29 02:12:56;;;;;;;10.47;5.07;;;15.30;99.90;;;;;;5030806;28;20478;-91
2022/10/29 02:15:37;;;;;;;13.70;5.30;;;15.30;99.90;;;;;;5033249;28;20417;-90
2022/10/29 02:18:05;;;;;;;7.97;4.73;;;15.30;99.90;;;;;;5032456;28;20397;-86
2022/10/29 02:20:31;;;;;;;12.77;5.37;;;15.30;99.90;;;;;;5032994;28;20435;-91
2022/10/29 02:22:57;;;;;;;15.97;5.23;;;15.30;99.90;;;;;;5031431;28;20425;-90
2022/10/29 02:25:23;;;;;;;10.03;4.37;;;15.30;99.90;;;;;;5033257;28;20504;-83
2022/10/29 02:27:49;;;;;;;9.20;5.60;;;15.30;99.90;;;;;;5014571;28;20483;-90
2022/10/29 02:30:15;;;;;;;10.00;4.80;;;15.20;99.90;;;;;;5032871;28;20178;-91
2022/10/29 02:32:40;;;;;;;15.70;4.63;;;15.20;99.90;;;;;;5016310;28;20188;-91
2022/10/29 02:35:06;;;;;;;10.63;5.43;;;15.10;99.90;;;;;;5035336;28;20423;-91
2022/10/29 02:37:32;;;;;;;15.40;5.67;;;15.00;99.90;;;;;;5035356;28;20182;-92
2022/10/29 02:39:57;;;;;;;17.57;6.03;;;15.00;99.90;;;;;;5036275;28;20439;-91
2022/10/29 02:42:23;;;;;;;14.37;5.40;;;15.00;99.90;;;;;;5035006;28;20260;-90
2022/10/29 02:44:49;;;;;;;13.50;5.90;;;14.90;99.90;;;;;;5036369;28;20186;-90
2022/10/29 02:47:15;;;;;;;15.57;5.33;;;14.80;99.90;;;;;;5035296;28;20301;-90
2022/10/29 02:49:40;;;;;;;12.00;5.90;;;14.80;99.90;;;;;;5035602;28;20185;-89
2022/10/29 02:52:06;;;;;;;14.50;5.40;;;14.80;99.90;;;;;;5035111;28;20466;-90
2022/10/29 02:54:31;;;;;;;11.57;5.07;;;14.80;99.90;;;;;;5033175;28;20776;-88
2022/10/29 02:56:57;;;;;;;15.23;5.60;;;14.80;99.90;;;;;;5017814;28;20170;-90
2022/10/29 02:59:23;;;;;;;8.40;5.33;;;14.80;99.90;;;;;;5036492;28;20210;-91
2022/10/29 03:01:48;;;;;;;22.17;5.17;;;14.70;99.90;;;;;;5018565;28;20525;-91
2022/10/29 03:04:14;;;;;;;9.73;5.73;;;14.70;99.90;;;;;;5035612;28;20257;-90
2022/10/29 03:06:39;;;;;;;8.87;4.80;;;14.70;99.90;;;;;;5018255;28;20345;-86
2022/10/29 03:09:05;;;;;;;20.27;4.87;;;14.60;99.90;;;;;;5002107;28;20186;-89
2022/10/29 03:11:31;;;;;;;16.20;4.90;;;14.60;99.90;;;;;;5033868;28;20190;-91
2022/10/29 03:13:57;;;;;;;15.87;5.10;;;14.50;99.90;;;;;;5034932;28;20186;-91
2022/10/29 03:16:22;;;;;;;10.87;5.33;;;14.50;99.90;;;;;;5035308;28;20413;-90
2022/10/29 03:18:48;;;;;;;10.03;5.03;;;14.40;99.90;;;;;;5000861;28;20359;-90
2022/10/29 03:21:13;;;;;;;16.10;5.63;;;14.40;99.90;;;;;;5019102;28;20182;-89
2022/10/29 03:23:39;;;;;;;11.60;5.43;;;14.30;99.90;;;;;;5034986;28;20547;-89
2022/10/29 03:26:04;;;;;;;16.17;5.30;;;14.20;99.90;;;;;;5036159;28;20186;-89
2022/10/29 03:28:30;;;;;;;7.73;4.90;;;14.10;99.90;;;;;;5018513;28;20193;-90
2022/10/29 03:30:56;;;;;;;11.53;5.93;;;14.10;99.90;;;;;;5034480;28;20178;-90
2022/10/29 03:33:24;;;;;;;20.20;5.27;;;14.10;99.90;;;;;;5034349;28;20178;-90
2022/10/29 03:35:56;;;;;;;10.83;5.30;;;14.10;99.90;;;;;;5035818;28;20413;-91
2022/10/29 03:38:21;;;;;;;13.33;5.37;;;14.10;99.90;;;;;;5034868;28;20460;-90
2022/10/29 03:40:47;;;;;;;12.70;5.00;;;14.00;99.90;;;;;;5034973;28;20423;-88
2022/10/29 03:43:12;;;;;;;11.57;6.30;;;14.00;99.90;;;;;;5034674;28;20185;-90
2022/10/29 03:45:38;;;;;;;11.03;5.57;;;14.10;99.90;;;;;;5018227;28;20276;-90
2022/10/29 03:48:04;;;;;;;15.43;5.20;;;14.10;99.90;;;;;;5034084;28;20537;-89
2022/10/29 03:50:30;;;;;;;11.27;5.30;;;14.10;99.90;;;;;;5034676;28;20270;-91
2022/10/29 03:52:55;;;;;;;11.10;5.10;;;14.10;99.90;;;;;;5017787;28;20474;-89
2022/10/29 03:55:21;;;;;;;17.03;6.50;;;14.10;99.90;;;;;;5032139;28;20229;-88
2022/10/29 03:57:46;;;;;;;12.17;5.80;;;14.10;99.90;;;;;;5034633;28;20261;-90
2022/10/29 04:00:12;;;;;;;15.53;5.37;;;14.10;99.90;;;;;;5034513;28;20759;-90
2022/10/29 04:02:38;;;;;;;9.80;4.80;;;14.20;99.90;;;;;;5034532;28;20171;-87
2022/10/29 04:05:04;;;;;;;8.20;4.70;;;14.20;99.90;;;;;;5034658;28;20388;-89
2022/10/29 04:07:29;;;;;;;13.33;4.80;;;14.30;99.90;;;;;;5034732;28;20634;-90
2022/10/29 04:09:55;;;;;;;8.33;4.90;;;14.30;99.90;;;;;;5035376;28;20413;-90
2022/10/29 04:12:20;;;;;;;12.57;4.87;;;14.30;99.90;;;;;;5051999;28;20192;-91
2022/10/29 04:14:47;;;;;;;14.10;4.73;;;14.30;99.90;;;;;;5034054;28;20201;-90
2022/10/29 04:17:12;;;;;;;13.40;6.10;;;14.30;99.90;;;;;;5017908;28;20185;-88
2022/10/29 04:19:39;;;;;;;8.10;4.50;;;14.30;99.90;;;;;;5035449;28;20460;-88
2022/10/29 04:22:05;;;;;;;9.33;4.80;;;14.30;99.90;;;;;;5035330;28;20182;-90
2022/10/29 04:24:30;;;;;;;14.60;5.60;;;14.30;99.90;;;;;;5032869;28;20411;-90
2022/10/29 04:26:56;;;;;;;8.23;4.23;;;14.20;99.90;;;;;;5033456;28;20193;-90
2022/10/29 04:29:21;;;;;;;18.53;4.97;;;14.20;99.90;;;;;;5035105;28;20186;-90
2022/10/29 04:31:48;;;;;;;13.23;5.50;;;14.30;99.90;;;;;;5032331;28;20206;-90
2022/10/29 04:34:14;;;;;;;11.83;5.57;;;14.30;99.90;;;;;;5034853;28;20229;-90
2022/10/29 04:36:39;;;;;;;10.67;4.67;;;14.30;99.90;;;;;;5033502;28;20747;-90
2022/10/29 04:39:05;;;;;;;8.00;5.20;;;14.40;99.90;;;;;;5032374;28;20206;-90
2022/10/29 04:41:30;;;;;;;11.67;6.00;;;14.60;99.90;;;;;;5034814;28;20220;-88
2022/10/29 04:43:56;;;;;;;18.50;5.97;;;14.70;99.90;;;;;;5016815;28;20232;-90
2022/10/29 04:46:22;;;;;;;10.33;5.33;;;14.80;99.90;;;;;;5015955;28;20868;-90
2022/10/29 04:48:47;;;;;;;9.07;4.40;;;14.80;99.90;;;;;;5033343;28;20182;-91
2022/10/29 04:51:21;;;;;;;10.67;4.93;;;14.80;99.90;;;;;;5034609;28;20240;-90
2022/10/29 04:53:48;;;;;;;9.57;5.00;;;14.80;99.90;;;;;;5032796;28;20185;-88
2022/10/29 04:56:13;;;;;;;11.83;5.17;;;14.80;99.90;;;;;;5030690;28;20425;-89
2022/10/29 04:58:39;;;;;;;12.70;5.00;;;14.80;99.90;;;;;;5033452;28;20442;-88
2022/10/29 05:01:05;;;;;;;8.33;4.70;;;14.70;99.90;;;;;;5028286;28;20291;-88
2022/10/29 05:03:32;;;;;;;11.73;5.30;;;14.60;99.90;;;;;;5030050;28;20887;-89
2022/10/29 05:05:57;;;;;;;14.57;5.20;;;14.60;99.90;;;;;;5032293;28;20178;-86
2022/10/29 05:08:23;;;;;;;10.43;4.33;;;14.60;99.90;;;;;;5031668;28;20430;-88
2022/10/29 05:10:49;;;;;;;11.00;4.90;;;14.60;99.90;;;;;;5032557;28;20174;-87
2022/10/29 05:13:15;;;;;;;7.77;5.17;;;14.60;99.90;;;;;;5032364;28;20205;-86
2022/10/29 05:15:40;;;;;;;8.83;4.27;;;14.50;99.90;;;;;;5032401;28;20236;-87
2022/10/29 05:18:06;;;;;;;7.67;5.00;;;14.50;99.90;;;;;;5031575;28;20182;-88
2022/10/29 05:20:32;;;;;;;9.47;4.47;;;14.50;99.90;;;;;;5032546;28;20410;-85
2022/10/29 05:23:04;;;;;;;13.13;4.83;;;14.40;99.90;;;;;;5015697;28;20770;-89
2022/10/29 05:25:31;;;;;;;11.20;4.73;;;14.40;99.90;;;;;;5033313;28;20188;-88
2022/10/29 05:28:00;;;;;;;10.30;5.77;;;14.30;99.90;;;;;;5032908;28;20443;-87
2022/10/29 05:30:26;;;;;;;8.40;5.00;;;14.30;99.90;;;;;;5033258;28;20432;-85
2022/10/29 05:32:51;;;;;;;9.20;5.63;;;14.20;99.90;;;;;;5031020;28;20791;-87
2022/10/29 05:35:17;;;;;;;13.87;5.93;;;14.20;99.90;;;;;;5015601;28;20289;-88
2022/10/29 05:37:49;;;;;;;10.40;5.03;;;14.20;99.90;;;;;;5032072;28;20181;-88
2022/10/29 05:40:14;;;;;;;16.73;6.30;;;14.10;99.90;;;;;;5032954;28;20202;-87
2022/10/29 05:42:40;;;;;;;13.67;6.00;;;14.10;99.90;;;;;;5017580;28;20396;-86
2022/10/29 05:45:06;;;;;;;20.90;6.40;;;14.10;99.90;;;;;;5032730;28;20546;-88
2022/10/29 05:47:31;;;;;;;19.30;6.50;;;14.10;99.90;;;;;;4999097;28;20185;-87
2022/10/29 05:49:57;;;;;;;24.10;7.60;;;14.10;99.90;;;;;;5032814;28;20980;-87
2022/10/29 05:52:22;;;;;;;15.73;7.03;;;14.10;99.90;;;;;;5032856;28;20181;-87
2022/10/29 05:54:48;;;;;;;19.20;7.07;;;14.10;99.90;;;;;;5031756;28;20230;-83
2022/10/29 05:57:13;;;;;;;16.47;6.33;;;14.10;99.90;;;;;;5029545;28;20662;-86
2022/10/29 05:59:39;;;;;;;15.30;7.03;;;14.20;99.90;;;;;;5025442;28;20268;-86
2022/10/29 06:02:05;;;;;;;14.90;6.87;;;14.10;99.90;;;;;;5005277;28;20238;-86
2022/10/29 06:04:32;;;;;;;12.37;7.37;;;14.20;99.90;;;;;;5022125;28;20187;-85
2022/10/29 06:06:59;;;;;;;12.80;6.80;;;14.20;99.90;;;;;;5022773;28;20186;-86
2022/10/29 06:09:25;;;;;;;13.27;6.60;;;14.30;99.90;;;;;;5005932;28;20460;-87
2022/10/29 06:11:50;;;;;;;15.67;6.53;;;14.30;99.90;;;;;;5008541;28;20894;-86
2022/10/29 06:14:16;;;;;;;15.90;7.37;;;14.30;99.90;;;;;;5012001;28;20179;-87
2022/10/29 06:16:41;;;;;;;15.57;6.83;;;14.40;99.90;;;;;;4994932;28;20186;-87
2022/10/29 06:19:07;;;;;;;12.23;6.67;;;14.40;99.90;;;;;;4995025;28;20245;-87
2022/10/29 06:21:34;;;;;;;11.00;6.60;;;14.40;99.90;;;;;;5011969;28;20183;-87
2022/10/29 06:24:00;;;;;;;11.20;6.70;;;14.50;99.90;;;;;;5010652;28;20179;-87
2022/10/29 06:26:26;;;;;;;18.23;6.63;;;14.50;99.90;;;;;;5011867;28;20397;-87
2022/10/29 06:28:51;;;;;;;12.60;6.07;;;14.50;99.90;;;;;;5011393;28;20202;-86
2022/10/29 06:31:17;;;;;;;19.47;7.17;;;14.50;99.90;;;;;;5012055;28;20207;-87
2022/10/29 06:33:42;;;;;;;10.37;5.97;;;14.50;99.90;;;;;;5012800;28;20190;-87
2022/10/29 06:36:08;;;;;;;9.93;5.73;;;14.50;99.90;;;;;;5011691;28;20183;-87
2022/10/29 06:38:33;;;;;;;11.17;5.90;;;14.50;99.90;;;;;;4994257;28;20519;-87
2022/10/29 06:40:59;;;;;;;13.63;5.90;;;14.50;99.90;;;;;;5027923;28;20186;-87
2022/10/29 06:43:25;;;;;;;19.37;6.87;;;14.50;99.90;;;;;;5012575;28;20189;-87
2022/10/29 06:45:50;;;;;;;15.67;7.57;;;14.50;99.90;;;;;;4994556;28;20347;-84
2022/10/29 06:48:16;;;;;;;14.83;6.23;;;14.50;99.90;;;;;;4995133;28;20179;-87
2022/10/29 06:50:42;;;;;;;12.57;6.57;;;14.50;99.90;;;;;;5013017;28;20210;-87
2022/10/29 06:53:11;;;;;;;12.43;5.70;;;14.40;99.90;;;;;;4994186;28;20827;-87
2022/10/29 06:55:38;;;;;;;11.20;6.30;;;14.40;99.90;;;;;;5012429;28;20282;-87
2022/10/29 06:58:15;;;;;;;11.90;6.40;;;14.40;99.90;;;;;;5022325;28;20459;-88
2022/10/29 07:00:42;;;;;;;11.20;6.83;;;14.40;99.90;;;;;;5031125;28;20447;-85
2022/10/29 07:03:15;;;;;;;14.77;6.77;;;14.40;99.90;;;;;;5036325;28;20409;-87
2022/10/29 07:05:41;;;;;;;16.67;7.27;;;14.40;99.90;;;;;;5037824;28;20527;-87
2022/10/29 07:08:06;;;;;;;19.70;7.37;;;14.50;99.90;;;;;;5031554;28;20770;-88
2022/10/29 07:10:32;;;;;;;20.13;7.83;;;14.50;99.90;;;;;;5032494;28;20395;-88
2022/10/29 07:12:59;;;;;;;14.07;7.60;;;14.60;99.90;;;;;;5032154;28;20170;-87
2022/10/29 07:15:25;;;;;;;9.50;6.13;;;14.70;99.90;;;;;;5013907;28;20428;-85
2022/10/29 07:18:01;;;;;;;12.03;6.10;;;14.80;99.90;;;;;;4998084;28;20429;-81
2022/10/29 07:20:30;;;;;;;11.97;6.57;;;14.90;99.90;;;;;;5035273;28;20786;-81
2022/10/29 07:23:00;;;;;;;14.23;7.03;;;15.00;99.90;;;;;;5032997;28;20789;-82
2022/10/29 07:25:26;;;;;;;24.93;6.97;;;15.10;99.90;;;;;;5034872;28;20452;-80
2022/10/29 07:27:52;;;;;;;13.80;5.83;;;15.20;99.90;;;;;;5035890;28;20409;-81
2022/10/29 07:30:18;;;;;;;11.33;6.53;;;15.30;99.90;;;;;;5017170;28;20452;-81
2022/10/29 07:32:44;;;;;;;11.50;6.10;;;15.40;99.90;;;;;;5018561;28;20199;-81
2022/10/29 07:35:10;;;;;;;10.40;6.40;;;15.50;99.90;;;;;;5035337;28;20417;-82
2022/10/29 07:37:36;;;;;;;11.97;5.60;;;15.60;99.90;;;;;;5017389;28;20225;-84
2022/10/29 07:40:02;;;;;;;9.37;5.10;;;15.70;99.90;;;;;;5011555;28;20206;-84
2022/10/29 07:42:28;;;;;;;13.73;5.17;;;15.90;99.90;;;;;;5017244;28;20924;-84
2022/10/29 07:44:53;;;;;;;9.33;5.00;;;15.90;99.90;;;;;;5034101;28;20409;-81
2022/10/29 07:47:19;;;;;;;6.93;4.70;;;16.10;99.90;;;;;;5033344;28;20722;-84
2022/10/29 07:49:44;;;;;;;13.47;5.30;;;16.20;99.90;;;;;;5017665;28;20190;-84
2022/10/29 07:52:10;;;;;;;9.83;4.37;;;16.30;99.90;;;;;;5032253;28;20178;-84
2022/10/29 07:54:36;;;;;;;11.30;4.93;;;16.30;99.90;;;;;;5033769;28;20230;-84
2022/10/29 07:57:01;;;;;;;10.37;5.03;;;16.40;99.90;;;;;;5017019;28;20183;-83
2022/10/29 07:59:27;;;;;;;10.53;4.70;;;16.50;99.90;;;;;;5031433;28;20220;-84
2022/10/29 08:01:52;;;;;;;19.00;6.00;;;16.60;99.90;;;;;;5017240;28;20539;-85
2022/10/29 08:04:18;;;;;;;8.80;3.63;;;16.70;99.90;;;;;;5016898;28;20186;-85
2022/10/29 08:06:44;;;;;;;9.63;5.10;;;16.70;99.90;;;;;;5034367;28;20179;-85
2022/10/29 08:09:11;;;;;;;8.43;4.20;;;16.80;99.90;;;;;;5034734;28;20186;-85
2022/10/29 08:11:37;;;;;;;9.43;5.40;;;16.90;99.90;;;;;;5034983;28;20171;-84
2022/10/29 08:14:03;;;;;;;11.30;4.40;;;16.90;99.90;;;;;;5016295;28;20417;-84
2022/10/29 08:16:28;;;;;;;11.70;5.10;;;16.90;99.90;;;;;;5034549;28;20439;-85
2022/10/29 08:18:54;;;;;;;11.10;5.13;;;17.00;99.90;;;;;;5034224;28;20197;-84
2022/10/29 08:21:20;;;;;;;8.33;4.20;;;17.00;99.90;;;;;;5033762;28;20206;-85
2022/10/29 08:23:45;;;;;;;16.97;5.23;;;17.10;99.90;;;;;;5033241;28;20431;-85
2022/10/29 08:26:11;;;;;;;13.90;5.00;;;17.10;99.90;;;;;;5033389;28;20265;-85
2022/10/29 08:28:37;;;;;;;16.13;5.27;;;17.20;99.90;;;;;;5033901;28;20638;-84
2022/10/29 08:31:02;;;;;;;11.60;4.67;;;17.10;99.90;;;;;;5034230;28;20182;-84
2022/10/29 08:33:28;;;;;;;14.33;5.80;;;17.10;99.90;;;;;;5016574;28;20209;-82
2022/10/29 08:35:53;;;;;;;13.63;6.07;;;17.10;99.90;;;;;;5032625;28;20221;-83
2022/10/29 08:38:22;;;;;;;20.33;5.57;;;17.20;99.90;;;;;;5016208;28;20671;-84
2022/10/29 08:41:43;;;;;;;11.83;5.60;;;17.20;99.90;;;;;;5034268;28;20649;-84
2022/10/29 08:44:46;;;;;;;17.77;5.20;;;17.30;99.90;;;;;;4972019;28;20411;-86
2022/10/29 08:47:20;;;;;;;20.10;4.93;;;17.30;99.90;;;;;;4972466;28;20412;-83
2022/10/29 08:50:01;;;;;;;12.13;4.90;;;17.40;99.90;;;;;;5009790;28;20781;-84
2022/10/29 08:52:28;;;;;;;13.07;5.03;;;17.50;99.90;;;;;;5013672;28;20778;-83
2022/10/29 08:55:11;;;;;;;12.60;4.70;;;17.60;99.90;;;;;;5013020;28;20918;-83
2022/10/29 08:57:48;;;;;;;15.53;4.77;;;17.70;99.90;;;;;;5014344;28;20798;-84
2022/10/29 09:00:17;;;;;;;17.90;4.73;;;17.90;99.90;;;;;;5024981;28;20524;-84
2022/10/29 09:02:43;;;;;;;11.30;4.63;;;18.20;99.90;;;;;;5031692;28;20847;-84
2022/10/29 09:05:17;;;;;;;9.67;4.60;;;18.40;99.90;;;;;;5032809;28;20435;-83
2022/10/29 09:08:01;;;;;;;12.13;5.07;;;18.60;99.90;;;;;;5033753;28;20228;-84
2022/10/29 09:10:40;;;;;;;9.30;4.50;;;18.80;99.90;;;;;;5032672;28;20434;-84
2022/10/29 09:13:23;;;;;;;9.33;4.87;;;19.00;99.90;;;;;;5031533;28;20402;-84
2022/10/29 09:16:08;;;;;;;12.53;5.00;;;19.10;99.90;;;;;;5033731;28;21202;-83
2022/10/29 09:18:57;;;;;;;10.83;5.07;;;19.10;99.90;;;;;;5032408;28;20537;-83
2022/10/29 09:21:51;;;;;;;8.17;4.30;;;19.30;99.90;;;;;;5031282;28;20430;-83
2022/10/29 09:24:31;;;;;;;12.80;4.97;;;19.30;99.90;;;;;;5030617;28;20419;-83
2022/10/29 09:26:59;;;;;;;16.43;5.17;;;19.30;99.90;;;;;;5030858;28;20388;-83
2022/10/29 09:29:44;;;;;;;14.70;5.30;;;19.30;99.90;;;;;;5031982;28;20458;-85
2022/10/29 09:32:24;;;;;;;11.00;4.60;;;19.50;99.90;;;;;;5023586;28;20511;-84
2022/10/29 09:34:54;;;;;;;19.70;5.60;;;19.70;99.90;;;;;;5029405;28;20802;-85
2022/10/29 09:37:38;;;;;;;13.37;5.20;;;19.80;99.90;;;;;;5031475;28;20439;-83
2022/10/29 09:40:12;;;;;;;8.07;4.80;;;19.80;99.90;;;;;;5031687;28;20456;-83
2022/10/29 09:42:41;;;;;;;13.80;5.40;;;20.00;99.90;;;;;;5031305;28;20945;-84
2022/10/29 09:45:11;;;;;;;10.17;5.10;;;20.00;99.90;;;;;;5031261;28;20471;-84
2022/10/29 09:47:53;;;;;;;11.77;4.77;;;20.10;99.90;;;;;;5032378;28;20463;-85
2022/10/29 09:50:45;;;;;;;13.93;5.07;;;20.30;99.90;;;;;;5029582;28;20421;-84
2022/10/29 09:53:11;;;;;;;10.83;5.17;;;20.60;99.90;;;;;;5014579;28;20422;-84
2022/10/29 09:55:42;;;;;;;10.10;5.00;;;21.00;99.90;;;;;;5016288;28;20448;-84
2022/10/29 09:58:20;;;;;;;10.77;5.27;;;21.00;99.90;;;;;;5012329;28;20193;-84
2022/10/29 10:00:46;;;;;;;12.90;5.20;;;21.10;99.90;;;;;;5020369;28;20433;-83
2022/10/29 10:03:22;;;;;;;15.40;5.60;;;21.10;99.90;;;;;;5024669;28;20404;-84
2022/10/29 10:06:01;;;;;;;9.37;4.50;;;21.00;99.90;;;;;;5030182;28;20664;-84
2022/10/29 10:08:28;;;;;;;16.33;5.20;;;21.10;99.90;;;;;;5031871;28;20932;-84
2022/10/29 10:10:59;;;;;;;8.97;4.70;;;21.00;99.90;;;;;;5031754;28;20405;-84
2022/10/29 10:13:37;;;;;;;13.57;5.63;;;21.00;99.90;;;;;;5031477;28;20397;-84
2022/10/29 10:16:05;;;;;;;10.53;5.00;;;21.00;99.90;;;;;;5032288;28;20484;-84
2022/10/29 10:18:30;;;;;;;13.27;5.13;;;20.90;99.90;;;;;;5031307;28;20479;-85
2022/10/29 10:21:04;;;;;;;9.70;4.83;;;21.00;99.90;;;;;;5031942;28;20409;-85
2022/10/29 10:23:51;;;;;;;16.20;4.67;;;20.90;99.90;;;;;;5031291;28;20200;-85
2022/10/29 10:26:42;;;;;;;13.40;4.90;;;21.00;99.90;;;;;;5031132;28;20436;-85
2022/10/29 10:29:10;;;;;;;13.70;5.03;;;21.10;99.90;;;;;;5032675;28;20500;-85
2022/10/29 10:31:37;;;;;;;10.27;5.00;;;21.10;99.90;;;;;;5031302;28;20425;-84
2022/10/29 10:34:19;;;;;;;9.33;4.90;;;21.10;99.90;;;;;;5031008;28;20408;-85
2022/10/29 10:37:03;;;;;;;13.13;5.27;;;21.00;99.90;;;;;;5031409;28;20417;-86
2022/10/29 10:39:43;;;;;;;10.90;5.37;;;21.10;99.90;;;;;;5012962;28;20600;-85
2022/10/29 10:42:21;;;;;;;14.60;5.63;;;21.10;99.90;;;;;;5010492;28;20448;-86
2022/10/29 10:45:13;;;;;;;11.20;5.00;;;21.10;99.90;;;;;;5012846;28;20933;-86
2022/10/29 10:47:46;;;;;;;18.33;5.13;;;21.10;99.90;;;;;;5005739;28;20461;-86
2022/10/29 10:50:29;;;;;;;13.03;4.70;;;21.20;99.90;;;;;;5011584;28;20492;-84
2022/10/29 10:52:58;;;;;;;12.17;4.70;;;21.20;99.90;;;;;;5011549;28;20393;-84
2022/10/29 10:55:28;;;;;;;13.30;4.80;;;21.30;99.90;;;;;;5016014;28;20960;-85
2022/10/29 10:57:57;;;;;;;13.40;5.20;;;21.30;99.90;;;;;;5014277;28;20421;-85
2022/10/29 11:00:34;;;;;;;7.70;4.40;;;21.30;99.90;;;;;;5015847;28;20435;-85
2022/10/29 11:03:15;;;;;;;14.03;5.23;;;21.40;99.90;;;;;;5015715;28;20409;-85
2022/10/29 11:05:53;;;;;;;13.73;5.03;;;21.40;99.90;;;;;;5034903;28;20405;-85
2022/10/29 11:08:25;;;;;;;9.30;4.93;;;21.40;99.90;;;;;;5035213;28;20389;-86
2022/10/29 11:10:57;;;;;;;12.27;4.63;;;21.60;99.90;;;;;;5033718;28;20424;-84
2022/10/29 11:13:29;;;;;;;14.90;5.50;;;22.00;99.90;;;;;;5034023;28;20471;-88
2022/10/29 11:16:04;;;;;;;9.90;4.80;;;22.00;99.90;;;;;;5036343;28;20415;-88
2022/10/29 11:18:41;;;;;;;16.10;4.70;;;22.00;99.90;;;;;;5034813;28;20452;-88
2022/10/29 11:21:44;;;;;;;10.87;4.73;;;22.30;99.90;;;;;;5035392;28;20454;-84
2022/10/29 11:24:16;;;;;;;17.37;4.80;;;22.80;99.90;;;;;;5002501;28;21034;-85
2022/10/29 11:26:59;;;;;;;13.87;5.40;;;23.20;99.90;;;;;;5035087;28;20433;-86
2022/10/29 11:29:44;;;;;;;14.73;5.10;;;23.50;99.90;;;;;;5034210;28;20428;-86
2022/10/29 11:32:16;;;;;;;12.23;5.00;;;23.60;99.90;;;;;;5033780;28;21009;-84
2022/10/29 11:35:08;;;;;;;8.37;4.63;;;23.40;99.90;;;;;;5032858;28;20414;-84
2022/10/29 11:38:00;;;;;;;9.97;4.90;;;23.30;99.90;;;;;;5035607;28;20463;-86
2022/10/29 11:40:48;;;;;;;9.00;5.20;;;23.40;99.90;;;;;;5033602;28;20478;-83
2022/10/29 11:43:17;;;;;;;11.27;4.63;;;23.40;99.90;;;;;;5035038;28;20503;-84
2022/10/29 11:46:03;;;;;;;13.30;5.20;;;23.50;99.90;;;;;;5034036;28;20921;-84
2022/10/29 11:48:40;;;;;;;16.80;5.30;;;23.70;99.90;;;;;;5032857;28;20437;-84
2022/10/29 11:51:27;;;;;;;12.27;4.93;;;23.70;99.90;;;;;;5034981;28;20405;-84
2022/10/29 11:54:22;;;;;;;12.37;4.77;;;23.70;99.90;;;;;;5034811;28;20460;-84
2022/10/29 11:56:59;;;;;;;12.30;4.63;;;23.60;99.90;;;;;;5032934;28;20417;-84
2022/10/29 11:59:36;;;;;;;11.90;5.03;;;23.60;99.90;;;;;;5033327;28;20825;-85
2022/10/29 12:02:02;;;;;;;11.00;4.70;;;23.70;99.90;;;;;;5032942;28;20455;-84
2022/10/29 12:04:41;;;;;;;11.33;5.00;;;23.70;99.90;;;;;;5032262;28;20427;-85
2022/10/29 12:07:40;;;;;;;14.73;5.50;;;23.80;99.90;;;;;;5034632;28;20174;-84
2022/10/29 12:10:37;;;;;;;11.03;4.13;;;23.80;99.90;;;;;;5014458;28;20429;-83
2022/10/29 12:13:41;;;;;;;10.20;4.57;;;24.00;99.90;;;;;;5034951;28;20401;-83
2022/10/29 12:16:36;;;;;;;12.90;5.03;;;24.10;99.90;;;;;;5033454;28;20420;-83
2022/10/29 12:19:02;;;;;;;15.33;4.97;;;24.40;99.90;;;;;;5032306;28;20514;-84
2022/10/29 12:21:37;;;;;;;17.77;5.87;;;24.40;99.90;;;;;;5033040;28;20429;-84
2022/10/29 12:24:08;;;;;;;17.07;7.10;;;24.50;99.90;;;;;;5034028;28;20637;-84
2022/10/29 12:26:42;;;;;;;8.27;4.40;;;24.50;99.90;;;;;;5033762;28;20433;-84
2022/10/29 12:29:42;;;;;;;14.00;5.00;;;24.40;99.90;;;;;;5033944;28;20492;-83
2022/10/29 12:32:14;;;;;;;9.97;5.00;;;24.30;99.90;;;;;;5032882;28;20445;-83
2022/10/29 12:34:47;;;;;;;13.40;5.10;;;24.20;99.90;;;;;;5031627;28;20425;-84
2022/10/29 12:37:38;;;;;;;11.50;5.30;;;24.20;99.90;;;;;;5033950;28;20412;-83
2022/10/29 12:40:32;;;;;;;13.33;5.30;;;24.20;99.90;;;;;;5033872;28;20636;-84
2022/10/29 12:43:05;;;;;;;10.47;4.60;;;24.10;99.90;;;;;;5035640;28;20429;-83
2022/10/29 12:45:50;;;;;;;9.80;4.73;;;24.10;99.90;;;;;;5037939;28;20425;-83
2022/10/29 12:48:19;;;;;;;11.90;4.97;;;24.10;99.90;;;;;;5033069;28;20397;-85
2022/10/29 12:51:05;;;;;;;8.30;4.60;;;24.30;99.90;;;;;;5033869;28;20467;-84
2022/10/29 12:53:44;;;;;;;14.30;5.67;;;24.30;99.90;;;;;;5018288;28;20436;-83
2022/10/29 12:56:12;;;;;;;19.10;5.90;;;24.30;99.90;;;;;;5032701;28;20808;-82
2022/10/29 12:58:47;;;;;;;11.57;5.67;;;24.70;99.90;;;;;;5032316;28;20471;-83